createdAt,value
2018-05-31T00:01:04.591Z,98823.36
2018-05-31T00:03:34.012Z,98819.52
2018-05-31T00:06:04.190Z,98824.14
2018-05-31T00:08:33.598Z,98815.94
2018-05-31T00:11:02.598Z,98821.05
2018-05-31T00:13:31.996Z,98815.66
2018-05-31T00:16:01.242Z,98814.41
2018-05-31T00:18:29.849Z,98810.13
2018-05-31T00:20:58.491Z,98812.44
2018-05-31T00:23:28.074Z,98818.81
2018-05-31T00:25:56.890Z,98818.78
2018-05-31T00:28:25.705Z,98810.75
2018-05-31T00:30:54.500Z,98805.02
2018-05-31T00:33:23.748Z,98800.84
2018-05-31T00:35:53.048Z,98799.52
2018-05-31T00:38:22.470Z,98799.83
2018-05-31T00:40:51.095Z,98790.23
2018-05-31T00:43:19.895Z,98791.75
2018-05-31T00:45:48.705Z,98787.73
2018-05-31T00:48:17.255Z,98788.43
2018-05-31T00:50:46.042Z,98798.14
2018-05-31T00:53:14.883Z,98798.05
2018-05-31T00:56:02.175Z,98802.47
2018-05-31T00:58:31.151Z,98799.38
2018-05-31T01:00:59.732Z,98796.52
2018-05-31T01:03:29.407Z,98800.84
2018-05-31T01:05:58.312Z,98795.40
2018-05-31T01:08:27.133Z,98803.94
2018-05-31T01:10:55.894Z,98809.89
2018-05-31T01:13:25.654Z,98810.31
2018-05-31T01:15:54.473Z,98803.09
2018-05-31T01:18:23.427Z,98797.91
2018-05-31T01:20:52.361Z,98802.55
2018-05-31T01:23:23.044Z,98803.19
2018-05-31T01:25:53.356Z,98811.78
2018-05-31T01:28:22.208Z,98815.89
2018-05-31T01:30:51.016Z,98816.75
2018-05-31T01:33:19.928Z,98819.12
2018-05-31T01:35:48.628Z,98817.02
2018-05-31T01:38:32.588Z,98818.22
2018-05-31T01:41:02.125Z,98820.50
2018-05-31T01:43:31.561Z,98818.13
2018-05-31T01:46:00.240Z,98816.42
2018-05-31T01:48:28.987Z,98821.34
2018-05-31T01:50:59.143Z,98820.77
2018-05-31T01:53:28.609Z,98818.44
2018-05-31T01:55:58.191Z,98818.22
2018-05-31T01:58:28.159Z,98822.17
2018-05-31T02:00:56.928Z,98824.39
2018-05-31T02:03:26.474Z,98825.92
2018-05-31T02:05:55.928Z,98824.12
2018-05-31T02:08:25.608Z,98821.64
2018-05-31T02:10:55.101Z,98821.63
2018-05-31T02:13:23.817Z,98824.42
2018-05-31T02:15:52.822Z,98821.99
2018-05-31T02:18:21.571Z,98822.73
2018-05-31T02:20:50.341Z,98820.66
2018-05-31T02:23:19.150Z,98834.45
2018-05-31T02:25:48.699Z,98832.04
2018-05-31T02:28:18.292Z,98834.92
2018-05-31T02:30:46.933Z,98837.92
2018-05-31T02:33:15.708Z,98836.02
2018-05-31T02:35:44.260Z,98836.53
2018-05-31T02:38:13.653Z,98838.66
2018-05-31T02:40:43.134Z,98840.61
2018-05-31T02:43:12.469Z,98846.70
2018-05-31T02:45:41.801Z,98854.12
2018-05-31T02:48:10.381Z,98854.94
2018-05-31T02:50:39.739Z,98865.41
2018-05-31T02:53:08.531Z,98860.13
2018-05-31T02:55:37.369Z,98865.34
2018-05-31T02:58:06.380Z,98870.86
2018-05-31T03:00:35.068Z,98872.17
2018-05-31T03:03:03.639Z,98871.75
2018-05-31T03:05:33.120Z,98868.84
2018-05-31T03:08:02.344Z,98873.27
2018-05-31T03:10:31.659Z,98868.87
2018-05-31T03:13:00.665Z,98880.17
2018-05-31T03:15:29.479Z,98879.28
2018-05-31T03:17:58.301Z,98880.59
2018-05-31T03:20:27.689Z,98883.05
2018-05-31T03:22:56.263Z,98882.36
2018-05-31T03:25:25.136Z,98889.37
2018-05-31T03:27:54.052Z,98887.63
2018-05-31T03:30:22.751Z,98891.62
2018-05-31T03:32:52.748Z,98892.81
2018-05-31T03:35:22.227Z,98892.27
2018-05-31T03:37:51.235Z,98891.97
2018-05-31T03:40:20.847Z,98887.28
2018-05-31T03:42:49.905Z,98887.91
2018-05-31T03:45:18.659Z,98892.88
2018-05-31T03:47:47.256Z,98889.19
2018-05-31T03:50:15.900Z,98890.34
2018-05-31T03:52:44.601Z,98886.59
2018-05-31T03:55:13.404Z,98894.69
2018-05-31T03:57:42.138Z,98892.62
2018-05-31T04:00:10.839Z,98896.42
2018-05-31T04:02:39.649Z,98899.98
2018-05-31T04:05:08.651Z,98909.89
2018-05-31T04:07:37.215Z,98915.70
2018-05-31T04:10:07.203Z,98918.28
2018-05-31T04:12:36.785Z,98918.72
2018-05-31T04:15:06.284Z,98920.56
2018-05-31T04:17:35.067Z,98918.41
2018-05-31T04:20:03.865Z,98918.85
2018-05-31T04:22:32.689Z,98918.31
2018-05-31T04:25:01.474Z,98917.84
2018-05-31T04:27:30.317Z,98920.74
2018-05-31T04:29:58.905Z,98915.07
2018-05-31T04:32:27.717Z,98915.69
2018-05-31T04:34:56.540Z,98915.27
2018-05-31T04:37:25.280Z,98915.40
2018-05-31T04:39:55.644Z,98910.53
2018-05-31T04:42:25.683Z,98916.16
2018-05-31T04:44:54.656Z,98917.20
2018-05-31T04:47:23.210Z,98912.47
2018-05-31T04:49:51.911Z,98910.26
2018-05-31T04:52:20.468Z,98918.41
2018-05-31T04:54:49.200Z,98917.27
2018-05-31T04:57:18.678Z,98922.70
2018-05-31T04:59:47.277Z,98915.05
2018-05-31T05:02:16.004Z,98924.83
2018-05-31T05:04:46.857Z,98922.54
2018-05-31T05:07:15.508Z,98924.70
2018-05-31T05:09:44.739Z,98928.43
2018-05-31T05:12:14.192Z,98932.00
2018-05-31T05:14:44.197Z,98933.53
2018-05-31T05:17:13.748Z,98934.18
2018-05-31T05:19:42.299Z,98941.94
2018-05-31T05:22:11.496Z,98938.88
2018-05-31T05:24:40.362Z,98943.56
2018-05-31T05:27:09.835Z,98947.24
2018-05-31T05:29:39.053Z,98953.38
2018-05-31T05:32:07.864Z,98954.41
2018-05-31T05:34:36.691Z,98953.52
2018-05-31T05:37:05.549Z,98960.28
2018-05-31T05:39:34.316Z,98965.17
2018-05-31T05:42:03.515Z,98964.37
2018-05-31T05:44:33.440Z,98967.73
2018-05-31T05:47:02.780Z,98974.33
2018-05-31T05:49:31.465Z,98978.34
2018-05-31T05:52:00.398Z,98972.34
2018-05-31T05:54:28.952Z,98973.70
2018-05-31T05:56:58.634Z,98978.42
2018-05-31T05:59:27.210Z,98976.86
2018-05-31T06:01:56.019Z,98978.24
2018-05-31T06:04:24.618Z,98979.67
2018-05-31T06:06:54.190Z,98981.16
2018-05-31T06:09:22.990Z,98977.91
2018-05-31T06:11:52.104Z,98980.63
2018-05-31T06:14:21.976Z,98970.78
2018-05-31T06:16:51.776Z,98972.99
2018-05-31T06:19:20.788Z,98966.88
2018-05-31T06:21:50.589Z,98967.38
2018-05-31T06:24:19.305Z,98967.97
2018-05-31T06:26:48.111Z,98969.63
2018-05-31T06:29:17.562Z,98966.03
2018-05-31T06:31:46.240Z,98973.72
2018-05-31T06:34:14.842Z,98984.70
2018-05-31T06:36:43.457Z,98982.54
2018-05-31T06:39:13.121Z,98986.61
2018-05-31T06:41:43.092Z,98979.83
2018-05-31T06:44:12.208Z,98984.72
2018-05-31T06:46:42.162Z,98980.28
2018-05-31T06:49:11.578Z,98977.14
2018-05-31T06:51:41.007Z,98974.89
2018-05-31T06:54:10.566Z,98979.52
2018-05-31T06:56:39.383Z,98984.36
2018-05-31T06:59:08.004Z,98983.51
2018-05-31T07:01:37.614Z,98982.63
2018-05-31T07:04:06.433Z,98982.09
2018-05-31T07:06:35.143Z,98982.51
2018-05-31T07:09:04.055Z,98986.84
2018-05-31T07:11:33.168Z,98977.41
2018-05-31T07:14:03.363Z,98978.81
2018-05-31T07:16:33.037Z,98973.27
2018-05-31T07:19:03.976Z,98985.19
2018-05-31T07:21:36.253Z,98979.12
2018-05-31T07:24:05.816Z,98980.84
2018-05-31T07:26:35.048Z,98983.17
2018-05-31T07:29:04.540Z,98987.59
2018-05-31T07:31:33.265Z,98985.66
2018-05-31T07:34:02.057Z,98975.05
2018-05-31T07:36:31.770Z,98984.17
2018-05-31T07:39:01.520Z,98983.78
2018-05-31T07:41:30.597Z,98987.55
2018-05-31T07:43:59.567Z,98976.95
2018-05-31T07:46:29.617Z,98978.54
2018-05-31T07:48:58.714Z,98967.62
2018-05-31T07:51:27.742Z,98973.13
2018-05-31T07:53:56.952Z,98969.78
2018-05-31T07:56:25.711Z,98967.78
2018-05-31T07:58:55.187Z,98958.58
2018-05-31T08:01:24.105Z,98958.35
2018-05-31T08:03:53.016Z,98960.82
2018-05-31T08:06:22.244Z,98962.17
2018-05-31T08:08:52.016Z,98960.25
2018-05-31T08:11:22.032Z,98974.75
2018-05-31T08:13:51.635Z,98971.22
2018-05-31T08:16:20.446Z,98968.09
2018-05-31T08:18:50.083Z,98974.36
2018-05-31T08:21:18.882Z,98972.53
2018-05-31T08:23:49.328Z,98978.43
2018-05-31T08:26:17.934Z,98973.14
2018-05-31T08:28:47.601Z,98963.98
2018-05-31T08:31:16.477Z,98972.39
2018-05-31T08:33:45.252Z,98967.28
2018-05-31T08:36:15.755Z,98966.64
2018-05-31T08:38:44.955Z,98967.88
2018-05-31T08:41:13.828Z,98966.20
2018-05-31T08:43:43.597Z,98964.09
2018-05-31T08:46:13.713Z,98958.82
2018-05-31T08:48:43.308Z,98961.19
2018-05-31T08:51:12.184Z,98965.45
2018-05-31T08:53:41.089Z,98974.66
2018-05-31T08:56:10.012Z,98974.63
2018-05-31T08:58:38.872Z,98962.09
2018-05-31T09:01:08.340Z,98976.41
2018-05-31T09:03:37.154Z,98957.13
2018-05-31T09:06:06.702Z,98960.81
2018-05-31T09:08:37.354Z,98964.87
2018-05-31T09:11:06.343Z,98965.00
2018-05-31T09:13:35.637Z,98960.57
2018-05-31T09:16:05.454Z,98961.77
2018-05-31T09:18:35.066Z,98955.37
2018-05-31T09:21:03.933Z,98956.97
2018-05-31T09:23:32.837Z,98951.66
2018-05-31T09:26:01.981Z,98953.69
2018-05-31T09:28:31.658Z,98949.66
2018-05-31T09:31:00.917Z,98952.95
2018-05-31T09:33:30.377Z,98957.73
2018-05-31T09:35:59.815Z,98947.50
2018-05-31T09:38:29.185Z,98957.14
2018-05-31T09:40:58.884Z,98952.25
2018-05-31T09:43:28.397Z,98953.07
2018-05-31T09:45:57.142Z,98948.23
2018-05-31T09:48:26.862Z,98943.36
2018-05-31T09:50:55.488Z,98955.43
2018-05-31T09:53:24.651Z,98951.47
2018-05-31T09:55:53.988Z,98952.69
2018-05-31T09:58:24.621Z,98947.68
2018-05-31T10:00:55.027Z,98943.89
2018-05-31T10:03:24.825Z,98940.86
2018-05-31T10:05:54.329Z,98951.14
2018-05-31T10:08:24.743Z,98955.70
2018-05-31T10:10:53.574Z,98952.76
2018-05-31T10:13:22.365Z,98958.75
2018-05-31T10:15:51.163Z,98952.41
2018-05-31T10:18:20.106Z,98949.63
2018-05-31T10:20:49.740Z,98955.13
2018-05-31T10:23:18.867Z,98940.82
2018-05-31T10:25:48.092Z,98949.03
2018-05-31T10:28:17.668Z,98947.14
2018-05-31T10:30:46.991Z,98952.48
2018-05-31T10:33:16.445Z,98959.58
2018-05-31T10:35:45.618Z,98959.81
2018-05-31T10:38:14.285Z,98957.78
2018-05-31T10:40:43.859Z,98971.59
2018-05-31T10:43:14.314Z,98965.45
2018-05-31T10:45:43.027Z,98955.37
2018-05-31T10:48:12.767Z,98963.09
2018-05-31T10:50:42.380Z,98960.59
2018-05-31T10:53:11.906Z,98965.15
2018-05-31T10:55:42.091Z,98965.97
2018-05-31T10:58:13.519Z,98969.33
2018-05-31T11:00:42.990Z,98969.32
2018-05-31T11:03:11.795Z,98965.95
2018-05-31T11:05:40.569Z,98967.61
2018-05-31T11:08:09.375Z,98961.45
2018-05-31T11:10:38.091Z,98958.09
2018-05-31T11:13:06.962Z,98957.02
2018-05-31T11:15:37.577Z,98960.78
2018-05-31T11:18:06.353Z,98956.27
2018-05-31T11:20:35.028Z,98955.61
2018-05-31T11:23:05.092Z,98951.13
2018-05-31T11:25:33.829Z,98949.99
2018-05-31T11:28:02.945Z,98942.59
2018-05-31T11:30:32.260Z,98948.78
2018-05-31T11:33:01.575Z,98939.77
2018-05-31T11:35:30.586Z,98946.97
2018-05-31T11:37:59.555Z,98939.55
2018-05-31T11:40:29.386Z,98942.33
2018-05-31T11:42:59.166Z,98943.98
2018-05-31T11:45:27.896Z,98946.41
2018-05-31T11:47:57.384Z,98942.11
2018-05-31T11:50:26.304Z,98936.02
2018-05-31T11:52:56.990Z,98935.88
2018-05-31T11:55:25.754Z,98929.57
2018-05-31T11:57:56.125Z,98933.12
2018-05-31T12:00:25.678Z,98930.03
2018-05-31T12:02:54.515Z,98929.48
2018-05-31T12:05:23.980Z,98923.64
2018-05-31T12:07:52.843Z,98921.25
2018-05-31T12:10:23.520Z,98921.95
2018-05-31T12:12:53.653Z,98920.09
2018-05-31T12:15:23.307Z,98913.22
2018-05-31T12:17:52.375Z,98912.80
2018-05-31T12:20:21.442Z,98911.97
2018-05-31T12:22:51.215Z,98908.52
2018-05-31T12:25:21.401Z,98900.59
2018-05-31T12:27:50.748Z,98906.20
2018-05-31T12:30:20.609Z,98901.19
2018-05-31T12:32:49.995Z,98901.17
2018-05-31T12:35:18.811Z,98892.92
2018-05-31T12:37:47.710Z,98886.50
2018-05-31T12:40:17.889Z,98880.86
2018-05-31T12:42:47.751Z,98874.52
2018-05-31T12:45:17.367Z,98864.89
2018-05-31T12:47:46.134Z,98866.70
2018-05-31T12:50:15.525Z,98860.66
2018-05-31T12:52:46.607Z,98859.89
2018-05-31T12:55:16.580Z,98855.72
2018-05-31T12:57:45.393Z,98848.14
2018-05-31T13:00:14.993Z,98853.38
2018-05-31T13:02:43.965Z,98853.77
2018-05-31T13:05:12.747Z,98858.30
2018-05-31T13:07:41.523Z,98862.72
2018-05-31T13:10:11.559Z,98854.80
2018-05-31T13:12:40.340Z,98853.91
2018-05-31T13:15:10.475Z,98846.41
2018-05-31T13:17:41.194Z,98836.94
2018-05-31T13:20:11.208Z,98837.31
2018-05-31T13:22:40.865Z,98839.08
2018-05-31T13:25:09.970Z,98830.09
2018-05-31T13:27:38.859Z,98820.97
2018-05-31T13:30:08.835Z,98815.95
2018-05-31T13:32:37.609Z,98818.33
2018-05-31T13:35:06.516Z,98818.11
2018-05-31T13:37:35.127Z,98808.10
2018-05-31T13:40:03.805Z,98810.20
2018-05-31T13:42:35.169Z,98805.93
2018-05-31T13:45:04.740Z,98805.59
2018-05-31T13:47:33.755Z,98798.38
2018-05-31T13:50:03.018Z,98790.18
2018-05-31T13:52:33.496Z,98798.52
2018-05-31T13:55:02.421Z,98800.69
2018-05-31T13:57:31.938Z,98793.25
2018-05-31T14:00:01.789Z,98792.42
2018-05-31T14:02:30.548Z,98791.27
2018-05-31T14:04:59.311Z,98779.66
2018-05-31T14:07:28.199Z,98777.54
2018-05-31T14:09:57.077Z,98776.66
2018-05-31T14:12:25.889Z,98772.33
2018-05-31T14:14:55.258Z,98771.46
2018-05-31T14:17:24.171Z,98765.70
2018-05-31T14:19:59.533Z,98769.06
2018-05-31T14:22:28.319Z,98777.55
2018-05-31T14:24:58.079Z,98778.81
2018-05-31T14:27:27.135Z,98786.70
2018-05-31T14:29:56.571Z,98785.67
2018-05-31T14:32:26.867Z,98790.02
2018-05-31T14:34:56.412Z,98789.70
2018-05-31T14:37:25.303Z,98795.20
2018-05-31T14:39:54.227Z,98792.52
2018-05-31T14:42:23.055Z,98795.01
2018-05-31T14:44:53.166Z,98795.97
2018-05-31T14:47:23.823Z,98803.83
2018-05-31T14:49:53.115Z,98794.80
2018-05-31T14:52:22.635Z,98795.01
2018-05-31T14:54:52.648Z,98784.01
2018-05-31T14:57:24.458Z,98785.78
2018-05-31T14:59:54.374Z,98785.73
2018-05-31T15:02:24.115Z,98783.63
2018-05-31T15:04:52.964Z,98780.52
2018-05-31T15:07:22.105Z,98785.12
2018-05-31T15:09:52.607Z,98786.56
2018-05-31T15:12:22.728Z,98783.88
2018-05-31T15:14:52.590Z,98787.32
2018-05-31T15:17:21.459Z,98793.95
2018-05-31T15:19:51.169Z,98790.16
2018-05-31T15:22:21.175Z,98791.22
2018-05-31T15:24:50.558Z,98797.10
2018-05-31T15:27:21.036Z,98793.27
2018-05-31T15:29:51.595Z,98790.53
2018-05-31T15:32:20.330Z,98787.53
2018-05-31T15:34:49.168Z,98780.77
2018-05-31T15:37:19.589Z,98785.81
2018-05-31T15:39:49.789Z,98790.88
2018-05-31T15:42:18.652Z,98778.02
2018-05-31T15:44:48.924Z,98776.52
2018-05-31T15:47:18.085Z,98768.30
2018-05-31T15:49:47.080Z,98766.41
2018-05-31T15:52:17.006Z,98759.18
2018-05-31T15:54:45.820Z,98757.24
2018-05-31T15:57:16.227Z,98760.83
2018-05-31T15:59:45.781Z,98753.04
2018-05-31T16:02:15.053Z,98749.23
2018-05-31T16:04:45.034Z,98751.95
2018-05-31T16:07:14.844Z,98753.07
2018-05-31T16:09:45.486Z,98748.63
2018-05-31T16:12:15.425Z,98747.75
2018-05-31T16:14:45.000Z,98748.33
2018-05-31T16:17:14.245Z,98748.23
2018-05-31T16:19:43.528Z,98747.64
2018-05-31T16:22:12.426Z,98747.73
2018-05-31T16:24:41.927Z,98745.78
2018-05-31T16:27:12.453Z,98742.27
2018-05-31T16:29:41.897Z,98749.22
2018-05-31T16:32:12.952Z,98744.89
2018-05-31T16:34:43.264Z,98744.40
2018-05-31T16:37:12.617Z,98746.08
2018-05-31T16:39:42.334Z,98746.95
2018-05-31T16:42:11.810Z,98750.19
2018-05-31T16:44:40.903Z,98747.52
2018-05-31T16:47:12.781Z,98746.81
2018-05-31T16:49:41.644Z,98742.53
2018-05-31T16:52:10.908Z,98744.88
2018-05-31T16:54:40.000Z,98741.76
2018-05-31T16:57:09.055Z,98741.48
2018-05-31T16:59:39.293Z,98742.00
2018-05-31T17:02:08.901Z,98743.32
2018-05-31T17:04:38.422Z,98751.73
2018-05-31T17:07:07.578Z,98750.13
2018-05-31T17:09:37.120Z,98745.80
2018-05-31T17:12:06.865Z,98745.92
2018-05-31T17:14:38.788Z,98752.22
2018-05-31T17:17:07.723Z,98748.92
2018-05-31T17:19:37.586Z,98757.56
2018-05-31T17:22:08.082Z,98756.34
2018-05-31T17:24:38.187Z,98757.50
2018-05-31T17:27:07.675Z,98763.58
2018-05-31T17:29:36.785Z,98764.17
2018-05-31T17:32:06.376Z,98773.54
2018-05-31T17:34:35.670Z,98781.70
2018-05-31T17:37:04.608Z,98779.20
2018-05-31T17:39:33.779Z,98780.86
2018-05-31T17:42:02.508Z,98779.20
2018-05-31T17:44:31.430Z,98783.23
2018-05-31T17:47:00.491Z,98778.88
2018-05-31T17:49:30.217Z,98786.81
2018-05-31T17:51:59.394Z,98792.31
2018-05-31T17:54:29.045Z,98791.91
2018-05-31T17:56:58.320Z,98790.25
2018-05-31T17:59:28.231Z,98795.41
2018-05-31T18:01:57.806Z,98799.00
2018-05-31T18:04:26.717Z,98791.69
2018-05-31T18:06:55.474Z,98795.11
2018-05-31T18:09:24.491Z,98789.65
2018-05-31T18:11:53.452Z,98793.74
2018-05-31T18:14:23.445Z,98790.95
2018-05-31T18:16:53.352Z,98784.88
2018-05-31T18:19:22.871Z,98788.00
2018-05-31T18:21:53.208Z,98783.67
2018-05-31T18:24:22.940Z,98787.89
2018-05-31T18:26:51.805Z,98783.36
2018-05-31T18:29:21.664Z,98787.85
2018-05-31T18:31:51.300Z,98788.66
2018-05-31T18:34:20.974Z,98793.80
2018-05-31T18:36:50.056Z,98789.47
2018-05-31T18:39:18.945Z,98792.65
2018-05-31T18:41:47.883Z,98798.83
2018-05-31T18:44:16.738Z,98801.97
2018-05-31T18:46:45.600Z,98812.11
2018-05-31T18:49:16.070Z,98814.83
2018-05-31T18:51:46.429Z,98817.71
2018-05-31T18:54:15.482Z,98821.17
2018-05-31T18:56:44.202Z,98823.97
2018-05-31T18:59:13.360Z,98832.12
2018-05-31T19:01:42.944Z,98828.56
2018-05-31T19:04:12.627Z,98828.24
2018-05-31T19:06:41.399Z,98832.64
2018-05-31T19:09:15.598Z,98839.30
2018-05-31T19:11:45.463Z,98844.31
2018-05-31T19:14:14.776Z,98850.45
2018-05-31T19:16:44.479Z,98859.28
2018-05-31T19:19:19.459Z,98866.82
2018-05-31T19:21:48.279Z,98873.52
2018-05-31T19:24:22.747Z,98876.00
2018-05-31T19:26:51.892Z,98882.44
2018-05-31T19:29:21.180Z,98884.69
2018-05-31T19:31:50.267Z,98895.95
2018-05-31T19:34:20.217Z,98899.95
2018-05-31T19:36:54.915Z,98907.52
2018-05-31T19:39:23.625Z,98903.68
2018-05-31T19:41:52.289Z,98912.85
2018-05-31T19:44:26.751Z,98910.61
2018-05-31T19:46:58.963Z,98916.20
2018-05-31T19:49:29.118Z,98916.05
2018-05-31T19:52:04.677Z,98919.43
2018-05-31T19:54:34.709Z,98923.42
2018-05-31T19:57:03.729Z,98925.86
2018-05-31T19:59:38.061Z,98926.84
2018-05-31T20:02:13.670Z,98932.05
2018-05-31T20:04:42.640Z,98930.23
2018-05-31T20:07:11.550Z,98933.27
2018-05-31T20:09:41.665Z,98935.66
2018-05-31T20:12:11.015Z,98945.69
2018-05-31T20:14:40.379Z,98946.80
2018-05-31T20:17:09.355Z,98946.74
2018-05-31T20:19:38.368Z,98947.61
2018-05-31T20:22:07.322Z,98952.09
2018-05-31T20:24:36.614Z,98954.98
2018-05-31T20:27:05.510Z,98954.91
2018-05-31T20:29:35.073Z,98953.42
2018-05-31T20:32:03.956Z,98958.63
2018-05-31T20:34:33.016Z,98963.67
2018-05-31T20:37:02.058Z,98961.86
2018-05-31T20:39:31.007Z,98963.08
2018-05-31T20:42:00.546Z,98969.09
2018-05-31T20:44:30.467Z,98972.67
2018-05-31T20:46:59.429Z,98966.94
2018-05-31T20:49:29.382Z,98966.87
2018-05-31T20:51:58.924Z,98964.63
2018-05-31T20:54:28.060Z,98968.77
2018-05-31T20:56:57.551Z,98976.88
2018-05-31T20:59:27.663Z,98983.61
2018-05-31T21:01:56.976Z,98987.79
2018-05-31T21:04:26.033Z,98988.45
2018-05-31T21:06:56.300Z,98992.27
2018-05-31T21:09:25.735Z,98989.47
2018-05-31T21:11:55.939Z,98994.69
2018-05-31T21:14:25.289Z,98998.60
2018-05-31T21:16:54.296Z,99002.66
2018-05-31T21:19:23.339Z,99001.52
2018-05-31T21:21:53.054Z,99000.86
2018-05-31T21:24:23.214Z,99001.94
2018-05-31T21:26:52.289Z,99003.09
2018-05-31T21:29:21.009Z,98999.36
2018-05-31T21:31:50.092Z,98993.00
2018-05-31T21:34:18.865Z,98993.53
2018-05-31T21:36:48.976Z,98988.05
2018-05-31T21:39:18.962Z,99003.88
2018-05-31T21:41:48.868Z,98998.56
2018-05-31T21:44:18.082Z,99002.41
2018-05-31T21:46:46.758Z,99003.31
2018-05-31T21:49:16.827Z,99001.21
2018-05-31T21:51:45.616Z,99001.31
2018-05-31T21:54:14.441Z,99005.68
2018-05-31T21:56:43.493Z,99003.55
2018-05-31T21:59:13.539Z,99014.30
2018-05-31T22:01:42.305Z,99018.67
2018-05-31T22:04:12.153Z,99019.55
2018-05-31T22:06:42.323Z,99017.77
2018-05-31T22:09:12.552Z,99019.59
2018-05-31T22:11:41.715Z,99015.35
2018-05-31T22:14:10.531Z,99017.84
2018-05-31T22:16:39.766Z,99021.83
2018-05-31T22:19:08.574Z,99031.77
2018-05-31T22:21:37.838Z,99030.30
2018-05-31T22:24:06.770Z,99040.53
2018-05-31T22:26:36.602Z,99038.63
2018-05-31T22:29:06.662Z,99039.20
2018-05-31T22:31:35.597Z,99040.17
2018-05-31T22:34:05.790Z,99043.81
2018-05-31T22:36:36.765Z,99038.74
2018-05-31T22:39:06.331Z,99035.92
2018-05-31T22:41:35.133Z,99040.95
2018-05-31T22:44:03.804Z,99042.68
2018-05-31T22:46:33.566Z,99043.66
2018-05-31T22:49:02.359Z,99042.73
2018-05-31T22:51:32.254Z,99044.27
2018-05-31T22:54:02.051Z,99041.59
2018-05-31T22:56:30.855Z,99047.80
2018-05-31T22:58:59.564Z,99040.80
2018-05-31T23:01:28.243Z,99039.48
2018-05-31T23:03:58.689Z,99044.19
2018-05-31T23:06:28.762Z,99042.36
2018-05-31T23:08:57.566Z,99044.14
2018-05-31T23:11:26.369Z,99042.45
2018-05-31T23:13:55.184Z,99047.50
2018-05-31T23:16:24.775Z,99047.83
2018-05-31T23:18:53.623Z,99045.93
2018-05-31T23:21:22.391Z,99038.31
2018-05-31T23:23:52.163Z,99040.48
2018-05-31T23:26:20.975Z,99041.31
2018-05-31T23:28:50.274Z,99043.90
2018-05-31T23:31:19.821Z,99045.93
2018-05-31T23:33:49.633Z,99038.70
2018-05-31T23:36:19.108Z,99046.05
2018-05-31T23:38:47.891Z,99044.95
2018-05-31T23:41:16.433Z,99042.94
2018-05-31T23:43:45.203Z,99045.13
2018-05-31T23:46:14.320Z,99045.88
2018-05-31T23:48:43.099Z,99050.52
2018-05-31T23:51:12.553Z,99051.83
2018-05-31T23:53:41.339Z,99054.36
2018-05-31T23:56:10.720Z,99059.48
2018-05-31T23:58:39.495Z,99050.46
